Time;durP1;ratioP1;P1;durP2;ratioP2;P2;SDS_P1;SDS_P2;PMS_P1;PMS_P2;Temp;Humidity;BMP_temperature;BMP_pressure;BME280_temperature;BME280_humidity;BME280_pressure;Samples;Min_cycle;Max_cycle;Signal;HPM_P1;HPM_P2
2022/09/05 00:00:21;;;;;;;;;;;20.10;93.10;;;;;;5094777;28;20279;-70
2022/09/05 00:03:10;;;;;;;;;;;20.00;93.00;;;;;;5056765;28;19916;-70
2022/09/05 00:05:53;;;;;;;;;;;20.00;93.10;;;;;;5047319;28;19927;-70
2022/09/05 00:08:26;;;;;;;;;;;19.90;93.10;;;;;;5074402;28;19920;-70
2022/09/05 00:11:01;;;;;;;;;;;19.90;93.20;;;;;;5073701;28;19954;-70
2022/09/05 00:13:29;;;;;;;;;;;19.90;93.10;;;;;;5055320;28;19928;-70
2022/09/05 00:15:55;;;;;;;;;;;19.90;93.20;;;;;;5073949;28;19916;-70
2022/09/05 00:18:28;;;;;;;;;;;19.80;93.40;;;;;;5074003;28;19928;-70
2022/09/05 00:21:06;;;;;;;;;;;19.80;93.50;;;;;;5055988;28;19920;-70
2022/09/05 00:23:40;;;;;;;;;;;19.70;93.50;;;;;;5073833;28;20364;-70
2022/09/05 00:26:24;;;;;;;;;;;19.80;93.50;;;;;;5054829;28;20299;-69
2022/09/05 00:29:00;;;;;;;;;;;19.70;93.60;;;;;;5055187;28;19928;-70
2022/09/05 00:31:38;;;;;;;;;;;19.70;93.60;;;;;;5080622;28;20334;-69
2022/09/05 00:34:04;;;;;;;;;;;19.70;93.90;;;;;;5074351;28;19920;-70
2022/09/05 00:36:30;;;;;;;;;;;19.70;93.70;;;;;;5093556;28;19946;-70
2022/09/05 00:38:57;;;;;;;;;;;19.60;93.70;;;;;;5074965;28;19920;-70
2022/09/05 00:41:23;;;;;;;;;;;19.60;93.90;;;;;;5074545;28;20287;-70
2022/09/05 00:43:49;;;;;;;;;;;19.60;93.80;;;;;;5075760;28;19920;-70
2022/09/05 00:46:22;;;;;;;;;;;19.50;93.90;;;;;;5092087;28;20454;-70
2022/09/05 00:48:48;;;;;;;;;;;19.50;94.00;;;;;;5075770;28;19915;-70
2022/09/05 00:51:37;;;;;;;;;;;19.60;94.00;;;;;;5093345;28;20302;-70
2022/09/05 00:54:11;;;;;;;;;;;19.50;94.10;;;;;;5092563;28;20252;-70
2022/09/05 00:56:39;;;;;;;;;;;19.40;94.00;;;;;;5092783;28;19971;-70
2022/09/05 00:59:37;;;;;;;;;;;19.50;94.20;;;;;;5074970;28;19982;-70
2022/09/05 01:02:06;;;;;;;;;;;19.50;94.00;;;;;;5045777;28;19920;-70
2022/09/05 01:04:40;;;;;;;;;;;19.50;94.20;;;;;;5072626;28;20338;-70
2022/09/05 01:07:32;;;;;;;;;;;19.40;94.20;;;;;;5054799;28;19947;-70
2022/09/05 01:10:04;;;;;;;;;;;19.30;94.50;;;;;;5042010;28;20428;-70
2022/09/05 01:12:38;;;;;;;;;;;19.30;94.50;;;;;;5055214;28;20360;-70
2022/09/05 01:15:21;;;;;;;;;;;19.20;94.40;;;;;;5070229;28;19967;-70
2022/09/05 01:17:52;;;;;;;;;;;19.20;94.60;;;;;;5072798;28;19947;-70
2022/09/05 01:20:21;;;;;;;;;;;19.10;94.40;;;;;;5073161;28;19924;-70
2022/09/05 01:22:57;;;;;;;;;;;19.10;94.90;;;;;;5053961;28;19920;-70
2022/09/05 01:25:41;;;;;;;;;;;19.10;94.90;;;;;;5073204;28;19959;-70
2022/09/05 01:28:12;;;;;;;;;;;19.10;94.80;;;;;;5072842;28;19928;-70
2022/09/05 01:30:41;;;;;;;;;;;19.10;94.80;;;;;;5052497;28;19920;-70
2022/09/05 01:33:29;;;;;;;;;;;19.00;94.80;;;;;;5072793;28;19927;-70
2022/09/05 01:36:05;;;;;;;;;;;19.00;94.80;;;;;;5042773;28;19921;-70
2022/09/05 01:38:34;;;;;;;;;;;19.00;95.00;;;;;;5055240;28;19921;-70
2022/09/05 01:41:04;;;;;;;;;;;18.90;95.30;;;;;;5054607;28;19920;-70
2022/09/05 01:43:48;;;;;;;;;;;18.90;95.10;;;;;;5072319;28;19921;-70
2022/09/05 01:46:29;;;;;;;;;;;18.80;95.30;;;;;;5070797;28;19925;-69
2022/09/05 01:49:06;;;;;;;;;;;18.80;95.40;;;;;;5054331;28;19970;-70
2022/09/05 01:52:05;;;;;;;;;;;18.70;95.70;;;;;;5055103;28;20295;-70
2022/09/05 01:54:30;;;;;;;;;;;18.60;95.80;;;;;;5077044;28;19982;-70
2022/09/05 01:57:08;;;;;;;;;;;18.60;95.60;;;;;;5075357;28;20689;-70
2022/09/05 01:59:40;;;;;;;;;;;18.60;95.50;;;;;;5058397;28;19935;-70
2022/09/05 02:02:24;;;;;;;;;;;18.60;95.80;;;;;;5043642;28;19948;-70
2022/09/05 02:05:01;;;;;;;;;;;18.50;95.60;;;;;;5055442;28;20364;-70
2022/09/05 02:07:26;;;;;;;;;;;18.50;95.80;;;;;;5056350;28;19975;-69
2022/09/05 02:10:08;;;;;;;;;;;18.50;95.80;;;;;;5056159;28;19921;-70
2022/09/05 02:12:44;;;;;;;;;;;18.40;95.90;;;;;;5055940;28;19917;-70
2022/09/05 02:15:26;;;;;;;;;;;18.30;96.10;;;;;;5038454;28;19925;-70
2022/09/05 02:17:55;;;;;;;;;;;18.30;96.50;;;;;;5038042;28;19924;-70
2022/09/05 02:20:21;;;;;;;;;;;18.20;96.50;;;;;;5038331;28;19921;-70
2022/09/05 02:23:08;;;;;;;;;;;18.20;96.50;;;;;;5056195;28;20028;-70
2022/09/05 02:26:03;;;;;;;;;;;18.10;96.60;;;;;;5055461;28;20014;-70
2022/09/05 02:28:47;;;;;;;;;;;18.10;97.10;;;;;;5021408;28;19928;-69
2022/09/05 02:31:25;;;;;;;;;;;18.10;96.90;;;;;;5044414;28;19928;-69
2022/09/05 02:33:53;;;;;;;;;;;18.00;97.40;;;;;;5057225;28;20360;-69
2022/09/05 02:36:43;;;;;;;;;;;17.90;97.40;;;;;;5057603;28;20476;-69
2022/09/05 02:39:27;;;;;;;;;;;17.90;97.70;;;;;;5063761;28;19960;-70
2022/09/05 02:41:59;;;;;;;;;;;17.80;97.80;;;;;;5075825;28;19951;-70
2022/09/05 02:44:51;;;;;;;;;;;17.80;97.80;;;;;;5057496;28;19950;-69
2022/09/05 02:47:22;;;;;;;;;;;17.70;98.00;;;;;;5025396;28;19920;-69
2022/09/05 02:50:06;;;;;;;;;;;17.70;98.20;;;;;;5057371;28;19931;-70
2022/09/05 02:52:34;;;;;;;;;;;17.60;98.60;;;;;;5057165;28;19927;-69
2022/09/05 02:55:00;;;;;;;;;;;17.60;98.20;;;;;;5056819;28;19920;-69
2022/09/05 02:57:32;;;;;;;;;;;17.60;98.60;;;;;;5058029;28;19921;-70
2022/09/05 03:00:12;;;;;;;;;;;17.60;98.40;;;;;;5056994;28;19924;-70
2022/09/05 03:02:56;;;;;;;;;;;17.50;98.10;;;;;;5055133;28;19924;-69
2022/09/05 03:05:54;;;;;;;;;;;17.50;98.00;;;;;;5075498;28;19947;-69
2022/09/05 03:08:29;;;;;;;;;;;17.50;98.30;;;;;;5013031;28;20317;-69
2022/09/05 03:11:18;;;;;;;;;;;17.40;98.80;;;;;;5056805;28;19917;-70
2022/09/05 03:13:46;;;;;;;;;;;17.40;99.00;;;;;;5057506;28;20292;-68
2022/09/05 03:16:29;;;;;;;;;;;17.30;99.00;;;;;;5069984;28;19920;-69
2022/09/05 03:19:18;;;;;;;;;;;17.30;99.20;;;;;;5036770;28;19936;-69
2022/09/05 03:22:02;;;;;;;;;;;17.20;99.30;;;;;;5016761;28;19927;-69
2022/09/05 03:24:31;;;;;;;;;;;17.20;99.10;;;;;;5037008;28;20011;-69
2022/09/05 03:26:56;;;;;;;;;;;17.20;99.20;;;;;;5036928;28;19927;-69
2022/09/05 03:29:25;;;;;;;;;;;17.20;99.30;;;;;;5036334;28;19917;-69
2022/09/05 03:32:09;;;;;;;;;;;17.10;99.30;;;;;;5048455;28;19927;-70
2022/09/05 03:35:04;;;;;;;;;;;17.10;99.50;;;;;;5056473;28;19978;-69
2022/09/05 03:37:49;;;;;;;;;;;17.00;99.80;;;;;;5039213;28;19920;-69
2022/09/05 03:40:24;;;;;;;;;;;17.00;99.80;;;;;;5056831;28;19925;-70
2022/09/05 03:43:08;;;;;;;;;;;16.90;99.90;;;;;;5074015;28;20376;-70
2022/09/05 03:45:36;;;;;;;;;;;16.90;99.60;;;;;;5056412;28;19926;-70
2022/09/05 03:48:17;;;;;;;;;;;16.90;99.40;;;;;;5035302;28;19950;-69
2022/09/05 03:50:47;;;;;;;;;;;16.90;99.90;;;;;;5052276;28;19920;-69
2022/09/05 03:53:31;;;;;;;;;;;16.90;99.90;;;;;;5016790;28;19921;-70
2022/09/05 03:56:03;;;;;;;;;;;16.80;99.90;;;;;;5016221;28;20019;-70
2022/09/05 03:58:47;;;;;;;;;;;16.80;99.90;;;;;;5016311;28;19921;-69
2022/09/05 04:01:17;;;;;;;;;;;16.70;99.90;;;;;;5022503;28;19935;-69
2022/09/05 04:03:54;;;;;;;;;;;16.70;99.90;;;;;;5053712;28;20011;-70
2022/09/05 04:06:41;;;;;;;;;;;16.70;99.90;;;;;;5053996;28;19958;-70
2022/09/05 04:09:12;;;;;;;;;;;16.60;99.90;;;;;;5053726;28;20346;-70
2022/09/05 04:11:41;;;;;;;;;;;16.60;99.90;;;;;;5053373;28;20427;-70
2022/09/05 04:14:09;;;;;;;;;;;16.60;99.90;;;;;;5035925;28;20066;-69
2022/09/05 04:16:47;;;;;;;;;;;16.50;99.90;;;;;;5033856;28;19928;-70
2022/09/05 04:19:18;;;;;;;;;;;16.50;99.90;;;;;;5053354;28;19927;-69
2022/09/05 04:21:50;;;;;;;;;;;16.50;99.90;;;;;;5054046;28;19916;-70
2022/09/05 04:24:39;;;;;;;;;;;16.50;99.90;;;;;;5035808;28;19928;-70
2022/09/05 04:27:23;;;;;;;;;;;16.40;99.90;;;;;;5042629;28;19921;-70
2022/09/05 04:29:58;;;;;;;;;;;16.50;99.90;;;;;;5053946;28;20037;-68
2022/09/05 04:32:26;;;;;;;;;;;16.40;99.90;;;;;;5037587;28;20047;-67
2022/09/05 04:35:02;;;;;;;;;;;16.40;99.90;;;;;;5015850;28;19917;-69
2022/09/05 04:37:30;;;;;;;;;;;16.40;99.90;;;;;;5015811;28;20277;-67
2022/09/05 04:39:56;;;;;;;;;;;16.40;99.90;;;;;;5032250;28;20416;-70
2022/09/05 04:42:23;;;;;;;;;;;16.40;99.90;;;;;;5015883;28;19975;-71
2022/09/05 04:45:09;;;;;;;;;;;16.40;99.90;;;;;;5033541;28;20289;-69
2022/09/05 04:47:36;;;;;;;;;;;16.30;99.90;;;;;;5020700;28;19928;-71
2022/09/05 04:50:08;;;;;;;;;;;16.40;99.90;;;;;;5023532;28;19970;-70
2022/09/05 04:52:44;;;;;;;;;;;16.30;99.90;;;;;;5023869;28;19921;-71
2022/09/05 04:55:15;;;;;;;;;;;16.30;99.90;;;;;;5033208;28;19925;-69
2022/09/05 04:57:55;;;;;;;;;;;16.30;99.90;;;;;;5013938;28;19928;-71
2022/09/05 05:00:24;;;;;;;;;;;16.30;99.90;;;;;;5032204;28;19921;-70
2022/09/05 05:02:57;;;;;;;;;;;16.30;99.90;;;;;;5049829;28;19917;-70
2022/09/05 05:05:38;;;;;;;;;;;16.30;99.90;;;;;;5032777;28;20321;-71
2022/09/05 05:08:11;;;;;;;;;;;16.30;99.90;;;;;;5051826;28;20376;-71
2022/09/05 05:11:09;;;;;;;;;;;16.30;99.90;;;;;;5031237;28;20348;-71
2022/09/05 05:13:39;;;;;;;;;;;16.30;99.90;;;;;;5009665;28;19967;-72
2022/09/05 05:16:18;;;;;;;;;;;16.20;99.90;;;;;;5032936;28;19917;-70
2022/09/05 05:18:52;;;;;;;;;;;16.10;99.90;;;;;;5035219;28;19943;-71
2022/09/05 05:21:19;;;;;;;;;;;16.20;99.90;;;;;;5033752;28;19924;-70
2022/09/05 05:23:48;;;;;;;;;;;16.20;99.90;;;;;;5053029;28;19920;-72
2022/09/05 05:26:21;;;;;;;;;;;16.30;99.90;;;;;;5052284;28;19921;-70
2022/09/05 05:28:53;;;;;;;;;;;16.30;99.90;;;;;;5034272;28;19927;-71
2022/09/05 05:31:21;;;;;;;;;;;16.30;99.90;;;;;;5046704;28;20396;-72
2022/09/05 05:33:48;;;;;;;;;;;16.30;99.90;;;;;;5033032;28;19925;-69
2022/09/05 05:36:33;;;;;;;;;;;16.40;99.90;;;;;;5031542;28;20384;-70
2022/09/05 05:38:59;;;;;;;;;;;16.50;99.90;;;;;;5014191;28;19921;-71
2022/09/05 05:41:31;;;;;;;;;;;16.50;99.90;;;;;;5032308;28;19947;-71
2022/09/05 05:43:57;;;;;;;;;;;16.60;99.90;;;;;;5014326;28;20336;-70
2022/09/05 05:46:36;;;;;;;;;;;16.70;99.90;;;;;;5033987;28;20003;-70
2022/09/05 05:49:25;;;;;;;;;;;16.80;99.90;;;;;;5013899;28;19921;-70
2022/09/05 05:52:02;;;;;;;;;;;16.80;99.90;;;;;;4995259;28;19920;-71
2022/09/05 05:54:33;;;;;;;;;;;16.90;99.90;;;;;;5032844;28;20023;-70
2022/09/05 05:57:17;;;;;;;;;;;17.00;99.90;;;;;;5031492;28;19921;-70
2022/09/05 05:59:49;;;;;;;;;;;17.10;99.90;;;;;;5014827;28;19921;-70
2022/09/05 06:02:24;;;;;;;;;;;17.20;99.90;;;;;;5044924;28;20296;-70
2022/09/05 06:05:15;;;;;;;;;;;17.20;99.90;;;;;;5051496;28;19928;-70
2022/09/05 06:07:47;;;;;;;;;;;17.30;99.90;;;;;;5034844;28;19921;-70
2022/09/05 06:10:15;;;;;;;;;;;17.40;99.90;;;;;;5051628;28;19917;-70
2022/09/05 06:12:43;;;;;;;;;;;17.40;99.90;;;;;;5052343;28;19921;-70
2022/09/05 06:15:24;;;;;;;;;;;17.50;99.90;;;;;;5033968;28;19994;-70
2022/09/05 06:17:52;;;;;;;;;;;17.60;99.90;;;;;;5080923;28;20299;-70
2022/09/05 06:20:24;;;;;;;;;;;17.60;99.90;;;;;;5074396;28;19960;-70
2022/09/05 06:22:56;;;;;;;;;;;17.70;99.90;;;;;;5073976;28;19933;-70
2022/09/05 06:25:40;;;;;;;;;;;17.80;99.90;;;;;;5092059;28;20280;-70
2022/09/05 06:28:13;;;;;;;;;;;17.80;99.90;;;;;;5074141;28;19927;-70
2022/09/05 06:30:48;;;;;;;;;;;17.90;99.90;;;;;;5092430;28;20381;-70
2022/09/05 06:33:41;;;;;;;;;;;18.00;99.90;;;;;;5051296;28;19920;-70
2022/09/05 06:36:17;;;;;;;;;;;18.10;99.90;;;;;;5051967;28;19925;-70
2022/09/05 06:38:46;;;;;;;;;;;18.20;99.90;;;;;;5052445;28;19921;-70
2022/09/05 06:41:20;;;;;;;;;;;18.30;99.90;;;;;;5038012;28;19966;-70
2022/09/05 06:43:58;;;;;;;;;;;18.40;99.90;;;;;;5055759;28;19927;-70
2022/09/05 06:46:34;;;;;;;;;;;18.50;99.90;;;;;;5037720;28;20342;-70
2022/09/05 06:49:11;;;;;;;;;;;18.50;99.90;;;;;;5081662;28;19927;-70
2022/09/05 06:51:49;;;;;;;;;;;18.70;99.90;;;;;;5095832;28;20375;-70
2022/09/05 06:54:21;;;;;;;;;;;18.70;99.90;;;;;;5094934;28;20384;-69
2022/09/05 06:56:46;;;;;;;;;;;18.80;99.90;;;;;;5077905;28;19935;-68
2022/09/05 06:59:33;;;;;;;;;;;19.00;99.90;;;;;;5094647;28;19920;-66
2022/09/05 07:02:20;;;;;;;;;;;19.00;99.90;;;;;;5063432;28;19927;-67
2022/09/05 07:05:17;;;;;;;;;;;19.20;99.90;;;;;;5055404;28;19928;-68
2022/09/05 07:07:51;;;;;;;;;;;19.30;99.90;;;;;;4985038;28;19925;-67
2022/09/05 07:10:24;;;;;;;;;;;19.40;99.90;;;;;;5055467;28;19967;-68
2022/09/05 07:12:56;;;;;;;;;;;19.60;99.90;;;;;;5075380;28;19986;-67
2022/09/05 07:15:28;;;;;;;;;;;19.80;99.90;;;;;;5074561;28;19921;-67
2022/09/05 07:18:08;;;;;;;;;;;20.00;99.70;;;;;;5075725;28;19939;-67
2022/09/05 07:20:39;;;;;;;;;;;20.30;99.20;;;;;;5056411;28;19963;-67
2022/09/05 07:23:16;;;;;;;;;;;20.80;99.00;;;;;;5057067;28;20015;-67
2022/09/05 07:25:45;;;;;;;;;;;21.80;97.40;;;;;;5075353;28;20346;-67
2022/09/05 07:28:12;;;;;;;;;;;22.40;96.20;;;;;;5073714;28;19931;-67
2022/09/05 07:30:39;;;;;;;;;;;23.10;94.70;;;;;;5074959;28;20007;-67
2022/09/05 07:33:04;;;;;;;;;;;23.90;94.00;;;;;;5075320;28;19971;-67
2022/09/05 07:35:32;;;;;;;;;;;24.40;92.50;;;;;;5094631;28;20336;-67
2022/09/05 07:38:00;;;;;;;;;;;24.90;91.70;;;;;;5094587;28;19927;-69
2022/09/05 07:40:27;;;;;;;;;;;25.10;92.30;;;;;;5094861;28;20291;-67
2022/09/05 07:43:14;;;;;;;;;;;25.80;91.00;;;;;;5093659;28;20333;-67
2022/09/05 07:45:46;;;;;;;;;;;26.10;90.70;;;;;;5094609;28;20296;-67
2022/09/05 07:48:23;;;;;;;;;;;26.50;90.80;;;;;;5075046;28;19927;-67
2022/09/05 07:50:51;;;;;;;;;;;26.60;90.30;;;;;;5076092;28;19924;-67
2022/09/05 07:53:17;;;;;;;;;;;26.90;90.30;;;;;;5076386;28;19927;-67
2022/09/05 07:55:42;;;;;;;;;;;27.00;89.20;;;;;;5093805;28;20303;-67
2022/09/05 07:58:11;;;;;;;;;;;27.10;90.00;;;;;;5093878;28;19939;-67
2022/09/05 08:00:37;;;;;;;;;;;27.20;89.20;;;;;;5094461;28;19919;-67
2022/09/05 08:03:13;;;;;;;;;;;27.30;88.70;;;;;;5052909;28;19928;-67
2022/09/05 08:05:49;;;;;;;;;;;27.50;87.30;;;;;;5054218;28;19927;-68
2022/09/05 08:08:17;;;;;;;;;;;27.80;88.60;;;;;;5054224;28;20023;-68
2022/09/05 08:10:45;;;;;;;;;;;28.00;87.60;;;;;;5053109;28;20387;-74
2022/09/05 08:13:31;;;;;;;;;;;28.30;85.60;;;;;;5053672;28;20343;-67
2022/09/05 08:15:58;;;;;;;;;;;28.30;86.00;;;;;;5038076;28;19921;-68
2022/09/05 08:18:35;;;;;;;;;;;28.80;85.00;;;;;;5073533;28;19932;-67
2022/09/05 08:21:06;;;;;;;;;;;28.90;85.00;;;;;;5073911;28;19967;-68
2022/09/05 08:23:35;;;;;;;;;;;29.10;84.10;;;;;;5073845;28;19920;-67
2022/09/05 08:26:08;;;;;;;;;;;29.20;84.50;;;;;;5055566;28;20012;-67
2022/09/05 08:28:40;;;;;;;;;;;29.20;83.50;;;;;;5073703;28;20449;-68
2022/09/05 08:31:10;;;;;;;;;;;29.60;83.10;;;;;;5074628;28;19920;-67
2022/09/05 08:33:36;;;;;;;;;;;29.90;82.20;;;;;;5083310;28;19966;-67
2022/09/05 08:36:05;;;;;;;;;;;29.70;82.20;;;;;;5073427;28;20287;-68
2022/09/05 08:38:32;;;;;;;;;;;29.70;82.40;;;;;;5072706;28;20284;-68
2022/09/05 08:41:22;;;;;;;;;;;29.60;82.70;;;;;;5055219;28;20307;-68
2022/09/05 08:44:06;;;;;;;;;;;30.20;83.50;;;;;;5055865;28;20367;-68
2022/09/05 08:46:40;;;;;;;;;;;30.90;81.80;;;;;;5073917;28;19919;-68
2022/09/05 08:49:24;;;;;;;;;;;31.70;81.00;;;;;;5073380;28;19921;-68
2022/09/05 08:51:54;;;;;;;;;;;32.10;78.60;;;;;;5054742;28;20364;-68
2022/09/05 08:54:39;;;;;;;;;;;32.40;79.90;;;;;;5073499;28;19920;-68
2022/09/05 08:57:17;;;;;;;;;;;32.70;78.00;;;;;;5054894;28;19973;-68
2022/09/05 08:59:56;;;;;;;;;;;32.70;77.30;;;;;;5054453;28;19920;-68
2022/09/05 09:02:40;;;;;;;;;;;32.90;78.00;;;;;;5085068;28;19920;-69
2022/09/05 09:05:11;;;;;;;;;;;33.60;76.60;;;;;;5093105;28;19946;-69
2022/09/05 09:07:43;;;;;;;;;;;33.50;77.30;;;;;;5092576;28;19920;-68
2022/09/05 09:10:27;;;;;;;;;;;33.70;77.30;;;;;;5093167;28;19938;-69
2022/09/05 09:12:58;;;;;;;;;;;33.50;76.60;;;;;;5074254;28;20350;-69
2022/09/05 09:15:27;;;;;;;;;;;33.00;76.50;;;;;;5075209;28;20017;-68
2022/09/05 09:17:54;;;;;;;;;;;33.00;77.50;;;;;;5073002;28;19927;-69
2022/09/05 09:20:32;;;;;;;;;;;33.10;77.50;;;;;;5092589;28;19942;-69
2022/09/05 09:23:01;;;;;;;;;;;33.00;77.70;;;;;;5092881;28;19962;-68
2022/09/05 09:25:28;;;;;;;;;;;33.20;77.20;;;;;;5075396;28;19920;-68
2022/09/05 09:28:06;;;;;;;;;;;33.20;76.80;;;;;;5073969;28;19920;-69
2022/09/05 09:30:32;;;;;;;;;;;33.30;76.00;;;;;;5091485;28;19920;-68
2022/09/05 09:33:02;;;;;;;;;;;33.40;76.90;;;;;;5092473;28;19935;-68
2022/09/05 09:35:37;;;;;;;;;;;34.00;75.10;;;;;;5092232;28;19920;-68
2022/09/05 09:38:21;;;;;;;;;;;33.70;75.70;;;;;;5071336;28;19920;-70
2022/09/05 09:41:05;;;;;;;;;;;33.70;76.20;;;;;;5067779;28;20438;-69
2022/09/05 09:43:39;;;;;;;;;;;33.70;75.50;;;;;;5068101;28;19926;-70
2022/09/05 09:46:24;;;;;;;;;;;33.90;76.30;;;;;;5068170;28;19938;-70
2022/09/05 09:48:56;;;;;;;;;;;34.30;76.10;;;;;;5053981;28;19920;-70
2022/09/05 09:51:21;;;;;;;;;;;34.50;75.50;;;;;;5072926;28;19970;-69
2022/09/05 09:53:56;;;;;;;;;;;34.70;75.30;;;;;;5046874;28;19959;-68
2022/09/05 09:56:22;;;;;;;;;;;34.70;75.00;;;;;;5046203;28;19960;-70
2022/09/05 09:58:54;;;;;;;;;;;34.90;75.40;;;;;;5054853;28;19971;-68
2022/09/05 10:01:25;;;;;;;;;;;35.10;75.70;;;;;;5060005;28;20277;-68
2022/09/05 10:04:17;;;;;;;;;;;35.10;75.40;;;;;;5052607;28;19921;-69
2022/09/05 10:07:01;;;;;;;;;;;34.90;75.00;;;;;;5048259;28;19921;-68
2022/09/05 10:09:37;;;;;;;;;;;35.20;74.00;;;;;;5051941;28;20328;-69
2022/09/05 10:12:05;;;;;;;;;;;35.20;74.70;;;;;;5052049;28;20012;-68
2022/09/05 10:14:34;;;;;;;;;;;35.00;73.80;;;;;;5056074;28;19960;-69
2022/09/05 10:17:17;;;;;;;;;;;35.20;74.70;;;;;;5037212;28;19920;-69
2022/09/05 10:19:42;;;;;;;;;;;35.60;74.30;;;;;;5076115;28;19956;-70
2022/09/05 10:22:16;;;;;;;;;;;35.40;73.10;;;;;;5051341;28;20034;-73
2022/09/05 10:24:47;;;;;;;;;;;35.50;73.10;;;;;;5064510;28;19924;-72
2022/09/05 10:27:32;;;;;;;;;;;35.60;72.20;;;;;;5054465;28;19920;-69
2022/09/05 10:30:08;;;;;;;;;;;35.70;73.00;;;;;;5067635;28;19928;-73
2022/09/05 10:32:39;;;;;;;;;;;35.90;73.10;;;;;;5055409;28;20052;-69
2022/09/05 10:35:14;;;;;;;;;;;35.50;72.20;;;;;;5071679;28;19920;-68
2022/09/05 10:37:42;;;;;;;;;;;35.70;72.70;;;;;;5063205;28;19968;-71
2022/09/05 10:40:12;;;;;;;;;;;35.80;72.10;;;;;;5057676;28;19943;-69
2022/09/05 10:42:45;;;;;;;;;;;35.90;72.40;;;;;;5057456;28;19924;-69
2022/09/05 10:45:15;;;;;;;;;;;36.30;71.60;;;;;;5055006;28;19924;-70
2022/09/05 10:47:50;;;;;;;;;;;36.40;70.70;;;;;;5056809;28;19927;-71
2022/09/05 10:50:31;;;;;;;;;;;36.50;70.80;;;;;;5055515;28;20283;-70
2022/09/05 10:53:22;;;;;;;;;;;36.50;71.30;;;;;;5042110;28;19943;-70
2022/09/05 10:55:52;;;;;;;;;;;36.00;70.30;;;;;;5021983;28;19924;-70
2022/09/05 10:58:36;;;;;;;;;;;36.10;71.00;;;;;;5044807;28;19927;-71
2022/09/05 11:01:10;;;;;;;;;;;35.80;71.00;;;;;;5049099;28;20025;-70
2022/09/05 11:04:12;;;;;;;;;;;36.10;71.50;;;;;;5069618;28;19920;-70
2022/09/05 11:06:37;;;;;;;;;;;36.20;69.70;;;;;;4992779;28;20358;-70
2022/09/05 11:09:03;;;;;;;;;;;36.40;69.80;;;;;;5024841;28;20375;-69
2022/09/05 11:11:36;;;;;;;;;;;36.40;70.00;;;;;;5037497;28;19920;-70
2022/09/05 11:14:06;;;;;;;;;;;36.70;70.40;;;;;;5036507;28;19925;-69
2022/09/05 11:16:47;;;;;;;;;;;36.70;70.50;;;;;;5054972;28;19925;-69
2022/09/05 11:19:27;;;;;;;;;;;36.20;69.80;;;;;;5055548;28;20356;-70
2022/09/05 11:22:01;;;;;;;;;;;36.30;70.30;;;;;;5054603;28;19921;-69
2022/09/05 11:24:26;;;;;;;;;;;36.40;69.90;;;;;;5054561;28;19923;-69
2022/09/05 11:27:01;;;;;;;;;;;36.70;69.60;;;;;;5042369;28;19920;-70
2022/09/05 11:29:40;;;;;;;;;;;37.00;69.50;;;;;;5072611;28;20288;-70
2022/09/05 11:32:11;;;;;;;;;;;36.60;68.70;;;;;;5056592;28;19945;-69
2022/09/05 11:34:47;;;;;;;;;;;36.10;68.50;;;;;;5073893;28;20323;-69
2022/09/05 11:37:20;;;;;;;;;;;35.80;69.80;;;;;;5074460;28;19920;-70
2022/09/05 11:40:09;;;;;;;;;;;36.00;70.00;;;;;;5053339;28;19924;-69
2022/09/05 11:42:40;;;;;;;;;;;35.80;70.10;;;;;;5082872;28;19920;-70
2022/09/05 11:45:15;;;;;;;;;;;35.90;69.80;;;;;;5059580;28;19935;-73
2022/09/05 11:47:55;;;;;;;;;;;35.70;69.00;;;;;;5073335;28;19943;-71
2022/09/05 11:50:24;;;;;;;;;;;35.80;70.00;;;;;;5080961;28;20368;-70
2022/09/05 11:53:08;;;;;;;;;;;36.00;67.10;;;;;;5058107;28;19975;-70
2022/09/05 11:55:34;;;;;;;;;;;36.40;67.80;;;;;;5073408;28;19963;-70
2022/09/05 11:58:21;;;;;;;;;;;36.60;68.70;;;;;;5064939;28;20374;-68
2022/09/05 12:00:54;;;;;;;;;;;36.00;68.70;;;;;;5069369;28;19920;-68
2022/09/05 12:03:51;;;;;;;;;;;35.90;68.60;;;;;;5053310;28;19924;-70
2022/09/05 12:06:35;;;;;;;;;;;35.50;66.90;;;;;;5058531;28;20006;-70
2022/09/05 12:09:04;;;;;;;;;;;35.10;67.70;;;;;;5063519;28;20376;-70
2022/09/05 12:11:50;;;;;;;;;;;34.90;67.60;;;;;;5049839;28;20023;-69
2022/09/05 12:14:25;;;;;;;;;;;35.50;68.00;;;;;;5050219;28;19927;-69
2022/09/05 12:16:54;;;;;;;;;;;36.20;67.70;;;;;;5039699;28;20007;-71
2022/09/05 12:19:23;;;;;;;;;;;36.70;66.40;;;;;;5035378;28;20368;-71
2022/09/05 12:21:56;;;;;;;;;;;36.70;67.10;;;;;;5031043;28;19968;-71
2022/09/05 12:24:40;;;;;;;;;;;36.80;62.90;;;;;;5023346;28;19921;-69
2022/09/05 12:27:10;;;;;;;;;;;35.50;61.30;;;;;;5037470;28;19921;-70
2022/09/05 12:29:39;;;;;;;;;;;35.20;63.30;;;;;;5069549;28;19921;-69
2022/09/05 12:32:09;;;;;;;;;;;34.90;64.00;;;;;;5061964;28;19920;-67
2022/09/05 12:34:48;;;;;;;;;;;34.40;65.60;;;;;;5043460;28;20387;-69
2022/09/05 12:37:17;;;;;;;;;;;34.00;65.80;;;;;;5050185;28;20005;-70
2022/09/05 12:39:44;;;;;;;;;;;33.50;66.80;;;;;;5047495;28;19974;-70
2022/09/05 12:42:17;;;;;;;;;;;33.80;69.20;;;;;;5016713;28;19924;-69
2022/09/05 12:44:53;;;;;;;;;;;34.60;67.90;;;;;;5050969;28;19920;-69
2022/09/05 12:47:20;;;;;;;;;;;35.00;66.90;;;;;;5067196;28;19924;-68
2022/09/05 12:49:55;;;;;;;;;;;34.90;64.80;;;;;;5056347;28;19963;-69
2022/09/05 12:52:33;;;;;;;;;;;34.80;63.10;;;;;;5066651;28;19967;-70
2022/09/05 12:55:08;;;;;;;;;;;34.50;62.60;;;;;;5053175;28;19924;-70
2022/09/05 12:57:34;;;;;;;;;;;34.10;64.40;;;;;;5067389;28;19921;-69
2022/09/05 13:00:08;;;;;;;;;;;33.80;64.40;;;;;;5072020;28;19928;-70
2022/09/05 13:02:35;;;;;;;;;;;33.50;65.60;;;;;;5055468;28;19927;-71
2022/09/05 13:05:03;;;;;;;;;;;33.40;68.00;;;;;;5072295;28;19955;-69
2022/09/05 13:07:41;;;;;;;;;;;32.90;67.20;;;;;;5073356;28;19921;-72
2022/09/05 13:10:13;;;;;;;;;;;32.80;67.20;;;;;;5072956;28;19920;-71
2022/09/05 13:12:49;;;;;;;;;;;32.80;65.30;;;;;;5070886;28;19959;-71
2022/09/05 13:15:26;;;;;;;;;;;32.50;64.40;;;;;;5041732;28;20432;-69
2022/09/05 13:17:56;;;;;;;;;;;32.40;63.70;;;;;;5061429;28;19920;-70
2022/09/05 13:20:33;;;;;;;;;;;32.30;65.10;;;;;;5055200;28;19924;-71
2022/09/05 13:23:01;;;;;;;;;;;32.30;65.30;;;;;;5053750;28;19920;-72
2022/09/05 13:25:28;;;;;;;;;;;32.20;64.70;;;;;;5035184;28;19921;-70
2022/09/05 13:28:00;;;;;;;;;;;32.20;63.40;;;;;;5048371;28;20027;-70
2022/09/05 13:30:27;;;;;;;;;;;32.10;64.80;;;;;;5055639;28;19920;-68
2022/09/05 13:32:55;;;;;;;;;;;31.80;65.20;;;;;;5072421;28;20392;-69
2022/09/05 13:35:31;;;;;;;;;;;31.80;66.90;;;;;;5072648;28;19921;-69
2022/09/05 13:38:12;;;;;;;;;;;31.60;66.10;;;;;;5054674;28;19920;-70
2022/09/05 13:40:46;;;;;;;;;;;31.40;67.40;;;;;;5071990;28;20069;-69
2022/09/05 13:43:12;;;;;;;;;;;31.30;65.10;;;;;;5058905;28;19927;-69
2022/09/05 13:46:02;;;;;;;;;;;31.30;65.40;;;;;;5034921;28;19925;-69
2022/09/05 13:48:48;;;;;;;;;;;31.30;64.90;;;;;;5062935;28;20034;-70
2022/09/05 13:51:28;;;;;;;;;;;31.30;64.70;;;;;;5044019;28;19928;-72
2022/09/05 13:54:05;;;;;;;;;;;31.40;64.70;;;;;;5056209;28;19921;-69
2022/09/05 13:56:31;;;;;;;;;;;31.40;64.10;;;;;;5076005;28;19927;-71
2022/09/05 13:59:06;;;;;;;;;;;31.40;65.70;;;;;;5061306;28;19920;-70
2022/09/05 14:01:40;;;;;;;;;;;31.40;65.80;;;;;;5095269;28;19938;-70
2022/09/05 14:04:21;;;;;;;;;;;31.30;65.40;;;;;;5096290;28;19923;-70
2022/09/05 14:07:01;;;;;;;;;;;31.20;64.50;;;;;;5071854;28;20303;-71
2022/09/05 14:09:39;;;;;;;;;;;31.10;65.10;;;;;;5077710;28;20568;-70
2022/09/05 14:12:10;;;;;;;;;;;31.00;64.60;;;;;;5081857;28;19920;-73
2022/09/05 14:14:41;;;;;;;;;;;30.90;64.60;;;;;;5060131;28;19921;-69
2022/09/05 14:17:16;;;;;;;;;;;30.70;64.80;;;;;;5080279;28;19920;-71
2022/09/05 14:22:46;;;;;;;;;;;30.60;65.20;;;;;;5077369;28;20034;-69
2022/09/05 14:25:28;;;;;;;;;;;30.80;66.10;;;;;;5067447;28;19927;-72
2022/09/05 14:27:54;;;;;;;;;;;31.00;65.70;;;;;;5077341;28;20424;-70
2022/09/05 14:30:33;;;;;;;;;;;31.20;63.40;;;;;;5077286;28;19945;-72
2022/09/05 14:33:19;;;;;;;;;;;31.20;65.40;;;;;;5077650;28;20454;-72
2022/09/05 14:35:50;;;;;;;;;;;31.30;63.80;;;;;;5095872;28;20007;-71
2022/09/05 14:38:42;;;;;;;;;;;31.40;64.00;;;;;;5076781;28;19920;-75
2022/09/05 14:41:29;;;;;;;;;;;31.40;63.00;;;;;;5063234;28;19920;-75
2022/09/05 14:44:01;;;;;;;;;;;31.20;63.40;;;;;;5074143;28;20010;-77
2022/09/05 14:46:36;;;;;;;;;;;31.30;62.40;;;;;;5077651;28;20003;-70
2022/09/05 14:49:23;;;;;;;;;;;31.20;66.50;;;;;;5076771;28;19916;-69
2022/09/05 14:51:52;;;;;;;;;;;31.30;64.40;;;;;;5054524;28;20394;-70
2022/09/05 14:54:25;;;;;;;;;;;31.20;63.70;;;;;;5074260;28;19928;-73
2022/09/05 14:56:51;;;;;;;;;;;30.80;63.50;;;;;;5044303;28;19975;-69
2022/09/05 14:59:19;;;;;;;;;;;30.80;64.50;;;;;;5061898;28;20045;-72
2022/09/05 15:01:56;;;;;;;;;;;30.80;66.70;;;;;;5076977;28;19919;-73
2022/09/05 15:04:29;;;;;;;;;;;30.70;65.40;;;;;;5073300;28;19920;-72